Altus, Oklahoma
Current Conditions -  °F | °C
As of 10:58 PM on Friday 24 Oct 2014 (Local Time) from KLTS Reporting Station
Clear Clear  
Wind Chill: 64°   Ceiling: Unl
Heat Index: 64°   Visibility: 10mi
Dew Point: 59°   Wind: 6mph
Humidity: 82%   Direction: 120°ESE
Pressure: 30.06"   Gusts: NA
Location:  34.64°N, 99.33°W
Report Text: KLTS 250358Z 12005KT 10SM CLR 18/15 A3006 RMK AO2A SLP169 T01790148 $
Loading
Personal Weather Stations






























Interactive Weather Map New forecast layout! Learn more

10-Day Weather Forecast

Advertisements
Track Severe Weather on mobile